EZY3MV EGCC-EGKK
Flight info
| Callsign | EZY3MV |
|---|---|
| Flight time | 0h 49m |
| Altitude | 23000 |
| Route | LISTO L612 HON N859 KIDLI |
| Aircraft | A320/M-SDE3FGHIRWY/LB1 |
Departure
| Time | 2026-05-06 18:24 |
|---|---|
| Airport | Manchester Airport (EGCC) |
Arrival
| Time | 2026-05-06 19:13 |
|---|---|
| Airport | London Gatwick Airport (EGKK) |
| Time | Latitude | Longitude | Altitude | Speed | Heading |
|---|---|---|---|---|---|
| 2026-05-06 18:10 | 53.35931 | -2.27528 | 260 ft | 0 kts | 96° |
| 2026-05-06 18:16 | 53.35932 | -2.27539 | 260 ft | 2 kts | 96° |
| 2026-05-06 18:16 | 53.35933 | -2.27564 | 260 ft | 2 kts | 96° |
| 2026-05-06 18:17 | 53.35935 | -2.27589 | 260 ft | 2 kts | 96° |
| 2026-05-06 18:17 | 53.35939 | -2.27613 | 260 ft | 2 kts | 128° |
| 2026-05-06 18:17 | 53.35950 | -2.27630 | 260 ft | 2 kts | 158° |
| 2026-05-06 18:17 | 53.35963 | -2.27634 | 260 ft | 0 kts | 182° |
| 2026-05-06 18:18 | 53.35970 | -2.27633 | 260 ft | 1 kts | 187° |
| 2026-05-06 18:19 | 53.35934 | -2.27639 | 260 ft | 9 kts | 185° |
| 2026-05-06 18:20 | 53.35859 | -2.27650 | 260 ft | 13 kts | 186° |
| 2026-05-06 18:20 | 53.35770 | -2.27664 | 260 ft | 11 kts | 186° |
| 2026-05-06 18:20 | 53.35703 | -2.27739 | 260 ft | 12 kts | 231° |
| 2026-05-06 18:20 | 53.35636 | -2.27876 | 260 ft | 17 kts | 231° |
| 2026-05-06 18:21 | 53.35559 | -2.28036 | 260 ft | 17 kts | 230° |
| 2026-05-06 18:21 | 53.35457 | -2.28149 | 260 ft | 17 kts | 196° |
| 2026-05-06 18:21 | 53.35336 | -2.28182 | 260 ft | 17 kts | 197° |
| 2026-05-06 18:21 | 53.35233 | -2.28297 | 260 ft | 18 kts | 229° |
| 2026-05-06 18:22 | 53.35140 | -2.28490 | 260 ft | 22 kts | 232° |
| 2026-05-06 18:22 | 53.35040 | -2.28692 | 260 ft | 22 kts | 230° |
| 2026-05-06 18:22 | 53.34937 | -2.28877 | 260 ft | 21 kts | 227° |
| 2026-05-06 18:22 | 53.34840 | -2.29038 | 260 ft | 18 kts | 214° |
| 2026-05-06 18:23 | 53.34733 | -2.29058 | 260 ft | 15 kts | 159° |
| 2026-05-06 18:23 | 53.34670 | -2.28965 | 260 ft | 8 kts | 79° |
| 2026-05-06 18:23 | 53.34705 | -2.28878 | 260 ft | 22 kts | 52° |
| 2026-05-06 18:23 | 53.34997 | -2.28272 | 260 ft | 106 kts | 51° |
| 2026-05-06 18:24 | 53.35601 | -2.27034 | 323 ft | 163 kts | 52° |
| 2026-05-06 18:24 | 53.36315 | -2.25557 | 1102 ft | 163 kts | 54° |
| 2026-05-06 18:24 | 53.37000 | -2.24124 | 2062 ft | 158 kts | 54° |
| 2026-05-06 18:24 | 53.37502 | -2.22487 | 2704 ft | 168 kts | 85° |
| 2026-05-06 18:25 | 53.37334 | -2.20508 | 3338 ft | 182 kts | 104° |
| 2026-05-06 18:25 | 53.36713 | -2.18556 | 3931 ft | 202 kts | 134° |
| 2026-05-06 18:25 | 53.35528 | -2.17150 | 4458 ft | 226 kts | 153° |
| 2026-05-06 18:25 | 53.33920 | -2.16445 | 4918 ft | 255 kts | 179° |
| 2026-05-06 18:26 | 53.32103 | -2.16750 | 5713 ft | 269 kts | 189° |
| 2026-05-06 18:26 | 53.30244 | -2.17186 | 6681 ft | 275 kts | 189° |
| 2026-05-06 18:26 | 53.28362 | -2.17575 | 7662 ft | 280 kts | 188° |
| 2026-05-06 18:26 | 53.26417 | -2.17929 | 8614 ft | 285 kts | 187° |
| 2026-05-06 18:27 | 53.24445 | -2.18258 | 9536 ft | 290 kts | 187° |
| 2026-05-06 18:27 | 53.22442 | -2.18580 | 10445 ft | 295 kts | 187° |
| 2026-05-06 18:27 | 53.20359 | -2.18909 | 11065 ft | 310 kts | 187° |
| 2026-05-06 18:27 | 53.18156 | -2.19258 | 11550 ft | 329 kts | 187° |
| 2026-05-06 18:28 | 53.15812 | -2.19538 | 11983 ft | 348 kts | 181° |
| 2026-05-06 18:28 | 53.13382 | -2.19048 | 12505 ft | 364 kts | 168° |
| 2026-05-06 18:28 | 53.10978 | -2.17667 | 13294 ft | 370 kts | 159° |
| 2026-05-06 18:28 | 53.08607 | -2.16021 | 14102 ft | 374 kts | 158° |
| 2026-05-06 18:29 | 53.06204 | -2.14319 | 14879 ft | 379 kts | 158° |
| 2026-05-06 18:29 | 53.03772 | -2.12606 | 15648 ft | 383 kts | 159° |
| 2026-05-06 18:29 | 53.01305 | -2.10882 | 16409 ft | 386 kts | 159° |
| 2026-05-06 18:29 | 52.98820 | -2.09157 | 17139 ft | 390 kts | 159° |
| 2026-05-06 18:30 | 52.96350 | -2.07451 | 17841 ft | 394 kts | 159° |
| 2026-05-06 18:30 | 52.93816 | -2.05706 | 18499 ft | 398 kts | 159° |
| 2026-05-06 18:30 | 52.91252 | -2.03945 | 18891 ft | 400 kts | 159° |
| 2026-05-06 18:30 | 52.88676 | -2.02181 | 18998 ft | 401 kts | 159° |
| 2026-05-06 18:31 | 52.86089 | -2.00418 | 19005 ft | 401 kts | 159° |
| 2026-05-06 18:31 | 52.83514 | -1.98667 | 19006 ft | 401 kts | 159° |
| 2026-05-06 18:31 | 52.80930 | -1.96907 | 19005 ft | 401 kts | 159° |
| 2026-05-06 18:31 | 52.78377 | -1.95168 | 19007 ft | 401 kts | 159° |
| 2026-05-06 18:32 | 52.75811 | -1.93421 | 19004 ft | 401 kts | 159° |
| 2026-05-06 18:32 | 52.73239 | -1.91674 | 19006 ft | 401 kts | 159° |
| 2026-05-06 18:32 | 52.70658 | -1.89920 | 19004 ft | 400 kts | 159° |
| 2026-05-06 18:32 | 52.68068 | -1.88160 | 19003 ft | 400 kts | 159° |
| 2026-05-06 18:33 | 52.65514 | -1.86428 | 18998 ft | 400 kts | 159° |
| 2026-05-06 18:33 | 52.62936 | -1.84682 | 19007 ft | 400 kts | 159° |
| 2026-05-06 18:33 | 52.60386 | -1.82957 | 18998 ft | 400 kts | 159° |
| 2026-05-06 18:33 | 52.57817 | -1.81222 | 19001 ft | 400 kts | 159° |
| 2026-05-06 18:34 | 52.55248 | -1.79490 | 19003 ft | 400 kts | 159° |
| 2026-05-06 18:34 | 52.52687 | -1.77764 | 18999 ft | 400 kts | 159° |
| 2026-05-06 18:34 | 52.50120 | -1.76036 | 19000 ft | 400 kts | 159° |
| 2026-05-06 18:34 | 52.47537 | -1.74300 | 19004 ft | 400 kts | 159° |
| 2026-05-06 18:35 | 52.44991 | -1.72590 | 19004 ft | 400 kts | 159° |
| 2026-05-06 18:35 | 52.42420 | -1.70866 | 19006 ft | 400 kts | 159° |
| 2026-05-06 18:35 | 52.39825 | -1.69128 | 19005 ft | 400 kts | 159° |
| 2026-05-06 18:35 | 52.37257 | -1.67412 | 19004 ft | 400 kts | 159° |
| 2026-05-06 18:36 | 52.34694 | -1.65850 | 19007 ft | 399 kts | 162° |
| 2026-05-06 18:36 | 52.32055 | -1.64464 | 19019 ft | 399 kts | 163° |
| 2026-05-06 18:36 | 52.29396 | -1.63080 | 19011 ft | 399 kts | 163° |
| 2026-05-06 18:36 | 52.26782 | -1.61718 | 19010 ft | 399 kts | 163° |
| 2026-05-06 18:37 | 52.24112 | -1.60327 | 19012 ft | 399 kts | 163° |
| 2026-05-06 18:37 | 52.22384 | -1.59427 | 19007 ft | 399 kts | 163° |
| 2026-05-06 18:37 | 52.18836 | -1.57581 | 18986 ft | 399 kts | 163° |
| 2026-05-06 18:37 | 52.16224 | -1.56225 | 18987 ft | 399 kts | 163° |
| 2026-05-06 18:38 | 52.13556 | -1.54842 | 18999 ft | 399 kts | 163° |
| 2026-05-06 18:38 | 52.10915 | -1.53473 | 18993 ft | 399 kts | 163° |
| 2026-05-06 18:38 | 52.08283 | -1.52111 | 18978 ft | 399 kts | 163° |
| 2026-05-06 18:38 | 52.05644 | -1.50748 | 18966 ft | 399 kts | 163° |
| 2026-05-06 18:39 | 52.03014 | -1.49390 | 18969 ft | 399 kts | 163° |
| 2026-05-06 18:39 | 52.00353 | -1.48018 | 18992 ft | 399 kts | 163° |
| 2026-05-06 18:39 | 51.97732 | -1.46667 | 18976 ft | 398 kts | 163° |
| 2026-05-06 18:40 | 51.92452 | -1.43948 | 18994 ft | 398 kts | 163° |
| 2026-05-06 18:40 | 51.89827 | -1.42599 | 18993 ft | 398 kts | 163° |
| 2026-05-06 18:40 | 51.87169 | -1.41239 | 18993 ft | 398 kts | 163° |
| 2026-05-06 18:40 | 51.84543 | -1.39900 | 18993 ft | 398 kts | 163° |
| 2026-05-06 18:41 | 51.81917 | -1.38561 | 18997 ft | 399 kts | 163° |
| 2026-05-06 18:41 | 51.79290 | -1.37147 | 18996 ft | 399 kts | 160° |
| 2026-05-06 18:41 | 51.76717 | -1.35365 | 18995 ft | 400 kts | 154° |
| 2026-05-06 18:41 | 51.74297 | -1.33218 | 18996 ft | 401 kts | 149° |
| 2026-05-06 18:42 | 51.71930 | -1.30776 | 18997 ft | 401 kts | 148° |
| 2026-05-06 18:42 | 51.69609 | -1.28333 | 18994 ft | 401 kts | 148° |
| 2026-05-06 18:42 | 51.67286 | -1.25890 | 18994 ft | 400 kts | 148° |
| 2026-05-06 18:42 | 51.64955 | -1.23448 | 18994 ft | 400 kts | 148° |
| 2026-05-06 18:43 | 51.62621 | -1.21012 | 18993 ft | 400 kts | 148° |
| 2026-05-06 18:43 | 51.60306 | -1.18604 | 18841 ft | 398 kts | 148° |
| 2026-05-06 18:43 | 51.57978 | -1.16189 | 18582 ft | 397 kts | 148° |
| 2026-05-06 18:43 | 51.55655 | -1.13782 | 18325 ft | 396 kts | 148° |
| 2026-05-06 18:44 | 51.53359 | -1.11407 | 18067 ft | 394 kts | 148° |
| 2026-05-06 18:44 | 51.51048 | -1.09020 | 17809 ft | 392 kts | 148° |
| 2026-05-06 18:44 | 51.48912 | -1.06817 | 17561 ft | 391 kts | 148° |
| 2026-05-06 18:44 | 51.46607 | -1.04443 | 17300 ft | 390 kts | 148° |
| 2026-05-06 18:45 | 51.44357 | -1.02129 | 17046 ft | 389 kts | 148° |
| 2026-05-06 18:45 | 51.42086 | -0.99796 | 16785 ft | 388 kts | 148° |
| 2026-05-06 18:45 | 51.39809 | -0.97459 | 16525 ft | 386 kts | 148° |
| 2026-05-06 18:45 | 51.37551 | -0.95144 | 16267 ft | 385 kts | 148° |
| 2026-05-06 18:46 | 51.35312 | -0.92853 | 16010 ft | 383 kts | 148° |
| 2026-05-06 18:46 | 51.33054 | -0.90544 | 15751 ft | 382 kts | 147° |
| 2026-05-06 18:46 | 51.30792 | -0.88233 | 15493 ft | 381 kts | 147° |
| 2026-05-06 18:46 | 51.28582 | -0.85979 | 15234 ft | 379 kts | 147° |
| 2026-05-06 18:47 | 51.26355 | -0.83708 | 14979 ft | 378 kts | 147° |
| 2026-05-06 18:47 | 51.24156 | -0.81469 | 14726 ft | 377 kts | 147° |
| 2026-05-06 18:47 | 51.21938 | -0.79214 | 14472 ft | 375 kts | 147° |
| 2026-05-06 18:47 | 51.19962 | -0.77205 | 14243 ft | 374 kts | 147° |
| 2026-05-06 18:48 | 51.17923 | -0.75135 | 14007 ft | 373 kts | 147° |
| 2026-05-06 18:48 | 51.15741 | -0.72922 | 13756 ft | 371 kts | 147° |
| 2026-05-06 18:48 | 51.13593 | -0.70745 | 13508 ft | 369 kts | 147° |
| 2026-05-06 18:48 | 51.11437 | -0.68564 | 13252 ft | 368 kts | 147° |
| 2026-05-06 18:49 | 51.09263 | -0.66369 | 12985 ft | 366 kts | 147° |
| 2026-05-06 18:49 | 51.07135 | -0.64192 | 12688 ft | 365 kts | 144° |
| 2026-05-06 18:49 | 51.05314 | -0.61515 | 12506 ft | 351 kts | 128° |
| 2026-05-06 18:49 | 51.04038 | -0.58403 | 12421 ft | 325 kts | 116° |
| 2026-05-06 18:50 | 51.03078 | -0.55327 | 12343 ft | 303 kts | 114° |
| 2026-05-06 18:50 | 51.02186 | -0.52352 | 12030 ft | 298 kts | 114° |
| 2026-05-06 18:50 | 51.01309 | -0.49463 | 11517 ft | 301 kts | 114° |
| 2026-05-06 18:50 | 51.00393 | -0.46502 | 11114 ft | 300 kts | 115° |
| 2026-05-06 18:51 | 50.99477 | -0.43574 | 10881 ft | 292 kts | 115° |
| 2026-05-06 18:51 | 50.98585 | -0.40737 | 10705 ft | 282 kts | 115° |
| 2026-05-06 18:51 | 50.97726 | -0.38008 | 10454 ft | 269 kts | 114° |
| 2026-05-06 18:51 | 50.96981 | -0.35328 | 10232 ft | 260 kts | 107° |
| 2026-05-06 18:52 | 50.96489 | -0.32589 | 9917 ft | 257 kts | 102° |
| 2026-05-06 18:52 | 50.96081 | -0.29823 | 9586 ft | 256 kts | 101° |
| 2026-05-06 18:52 | 50.95767 | -0.27081 | 9256 ft | 254 kts | 89° |
| 2026-05-06 18:52 | 50.96155 | -0.24410 | 8925 ft | 248 kts | 58° |
| 2026-05-06 18:53 | 50.97324 | -0.22496 | 8628 ft | 241 kts | 27° |
| 2026-05-06 18:53 | 50.98905 | -0.21837 | 8305 ft | 237 kts | 357° |
| 2026-05-06 18:53 | 51.00470 | -0.22585 | 7963 ft | 237 kts | 326° |
| 2026-05-06 18:53 | 51.01528 | -0.24421 | 7634 ft | 238 kts | 297° |
| 2026-05-06 18:54 | 51.01895 | -0.26947 | 7297 ft | 239 kts | 273° |
| 2026-05-06 18:54 | 51.01852 | -0.29606 | 6928 ft | 241 kts | 268° |
| 2026-05-06 18:54 | 51.01730 | -0.32268 | 6580 ft | 242 kts | 267° |
| 2026-05-06 18:54 | 51.01597 | -0.34905 | 6264 ft | 241 kts | 266° |
| 2026-05-06 18:55 | 51.01460 | -0.37565 | 5948 ft | 240 kts | 267° |
| 2026-05-06 18:55 | 51.01320 | -0.40210 | 5635 ft | 239 kts | 267° |
| 2026-05-06 18:55 | 51.01183 | -0.42856 | 5324 ft | 238 kts | 270° |
| 2026-05-06 18:55 | 51.01463 | -0.45339 | 5056 ft | 227 kts | 301° |
| 2026-05-06 18:56 | 51.02490 | -0.47111 | 4741 ft | 215 kts | 329° |
| 2026-05-06 18:56 | 51.03754 | -0.48224 | 4517 ft | 202 kts | 335° |
| 2026-05-06 18:56 | 51.04980 | -0.49167 | 4289 ft | 190 kts | 336° |
| 2026-05-06 18:56 | 51.06143 | -0.49970 | 4109 ft | 174 kts | 347° |
| 2026-05-06 18:57 | 51.07319 | -0.49818 | 3602 ft | 176 kts | 27° |
| 2026-05-06 18:57 | 51.08229 | -0.48523 | 3168 ft | 178 kts | 48° |
| 2026-05-06 18:57 | 51.09002 | -0.46983 | 3006 ft | 178 kts | 51° |
| 2026-05-06 18:57 | 51.09749 | -0.45430 | 3003 ft | 178 kts | 51° |
| 2026-05-06 18:58 | 51.10493 | -0.43874 | 2849 ft | 174 kts | 51° |
| 2026-05-06 18:58 | 51.11188 | -0.42316 | 2554 ft | 174 kts | 58° |
| 2026-05-06 18:58 | 51.11684 | -0.40552 | 2515 ft | 176 kts | 68° |
| 2026-05-06 18:58 | 51.12039 | -0.38763 | 2465 ft | 160 kts | 71° |
| 2026-05-06 18:59 | 51.12327 | -0.37078 | 2295 ft | 157 kts | 73° |
| 2026-05-06 18:59 | 51.12575 | -0.35404 | 2080 ft | 155 kts | 74° |
| 2026-05-06 18:59 | 51.12804 | -0.33737 | 1866 ft | 154 kts | 75° |
| 2026-05-06 18:59 | 51.13023 | -0.32103 | 1647 ft | 146 kts | 75° |
| 2026-05-06 19:00 | 51.13226 | -0.30594 | 1433 ft | 132 kts | 75° |
| 2026-05-06 19:00 | 51.13416 | -0.29203 | 1270 ft | 129 kts | 75° |
| 2026-05-06 19:00 | 51.13611 | -0.27787 | 1111 ft | 129 kts | 75° |
| 2026-05-06 19:00 | 51.13737 | -0.26858 | 992 ft | 125 kts | 75° |
| 2026-05-06 19:01 | 51.13978 | -0.25095 | 773 ft | 121 kts | 75° |
| 2026-05-06 19:01 | 51.14157 | -0.23797 | 616 ft | 121 kts | 75° |
| 2026-05-06 19:01 | 51.14357 | -0.22374 | 726 ft | 144 kts | 75° |
| 2026-05-06 19:01 | 51.14589 | -0.20738 | 1301 ft | 158 kts | 75° |
| 2026-05-06 19:02 | 51.14837 | -0.18925 | 1821 ft | 178 kts | 75° |
| 2026-05-06 19:02 | 51.15108 | -0.16980 | 2304 ft | 178 kts | 75° |
| 2026-05-06 19:02 | 51.15218 | -0.15034 | 2494 ft | 184 kts | 98° |
| 2026-05-06 19:02 | 51.14539 | -0.13263 | 2853 ft | 195 kts | 136° |
| 2026-05-06 19:03 | 51.13289 | -0.12454 | 2991 ft | 197 kts | 171° |
| 2026-05-06 19:03 | 51.11928 | -0.12392 | 2995 ft | 196 kts | 180° |
| 2026-05-06 19:03 | 51.10558 | -0.12459 | 2996 ft | 196 kts | 181° |
| 2026-05-06 19:03 | 51.09181 | -0.12548 | 3000 ft | 200 kts | 183° |
| 2026-05-06 19:04 | 51.07824 | -0.13215 | 2997 ft | 213 kts | 214° |
| 2026-05-06 19:04 | 51.06906 | -0.15047 | 2974 ft | 214 kts | 248° |
| 2026-05-06 19:04 | 51.06409 | -0.17316 | 2994 ft | 215 kts | 255° |
| 2026-05-06 19:04 | 51.05990 | -0.19595 | 2997 ft | 214 kts | 256° |
| 2026-05-06 19:05 | 51.05587 | -0.21853 | 2994 ft | 214 kts | 257° |
| 2026-05-06 19:05 | 51.05178 | -0.24161 | 2995 ft | 214 kts | 257° |
| 2026-05-06 19:05 | 51.04777 | -0.26434 | 2994 ft | 215 kts | 257° |
| 2026-05-06 19:05 | 51.04379 | -0.28696 | 2995 ft | 215 kts | 257° |
| 2026-05-06 19:06 | 51.03979 | -0.30979 | 2996 ft | 215 kts | 257° |
| 2026-05-06 19:06 | 51.03575 | -0.33281 | 2994 ft | 214 kts | 257° |
| 2026-05-06 19:06 | 51.03179 | -0.35540 | 2995 ft | 215 kts | 257° |
| 2026-05-06 19:06 | 51.02777 | -0.37822 | 2995 ft | 215 kts | 257° |
| 2026-05-06 19:07 | 51.02373 | -0.40104 | 2992 ft | 215 kts | 257° |
| 2026-05-06 19:07 | 51.02100 | -0.42438 | 2972 ft | 211 kts | 276° |
| 2026-05-06 19:07 | 51.02602 | -0.44518 | 2966 ft | 204 kts | 313° |
| 2026-05-06 19:07 | 51.03730 | -0.45828 | 2992 ft | 201 kts | 333° |
| 2026-05-06 19:08 | 51.04968 | -0.46827 | 2993 ft | 201 kts | 336° |
| 2026-05-06 19:08 | 51.06227 | -0.47782 | 2994 ft | 201 kts | 339° |
| 2026-05-06 19:08 | 51.07577 | -0.48148 | 2970 ft | 198 kts | 10° |
| 2026-05-06 19:08 | 51.08807 | -0.47186 | 3000 ft | 199 kts | 37° |
| 2026-05-06 19:09 | 51.09871 | -0.45774 | 3001 ft | 199 kts | 41° |
| 2026-05-06 19:09 | 51.10903 | -0.44311 | 3001 ft | 199 kts | 41° |
| 2026-05-06 19:09 | 51.11933 | -0.42836 | 2999 ft | 199 kts | 41° |
| 2026-05-06 19:09 | 51.12923 | -0.41318 | 2993 ft | 199 kts | 51° |
| 2026-05-06 19:10 | 51.13394 | -0.39296 | 2825 ft | 198 kts | 85° |
| 2026-05-06 19:10 | 51.13233 | -0.37113 | 2363 ft | 200 kts | 99° |
| 2026-05-06 19:10 | 51.12937 | -0.35033 | 2116 ft | 185 kts | 96° |
| 2026-05-06 19:10 | 51.12920 | -0.33091 | 1859 ft | 170 kts | 81° |
| 2026-05-06 19:11 | 51.13110 | -0.31308 | 1563 ft | 155 kts | 75° |
| 2026-05-06 19:11 | 51.13334 | -0.29747 | 1364 ft | 136 kts | 74° |
| 2026-05-06 19:11 | 51.13533 | -0.28360 | 1156 ft | 122 kts | 75° |
| 2026-05-06 19:11 | 51.13712 | -0.27066 | 1002 ft | 119 kts | 75° |
| 2026-05-06 19:12 | 51.13889 | -0.25773 | 852 ft | 119 kts | 76° |
| 2026-05-06 19:12 | 51.14061 | -0.24488 | 705 ft | 119 kts | 76° |
| 2026-05-06 19:12 | 51.14240 | -0.23172 | 526 ft | 119 kts | 76° |
| 2026-05-06 19:12 | 51.14416 | -0.21894 | 372 ft | 119 kts | 77° |
| 2026-05-06 19:13 | 51.14597 | -0.20601 | 228 ft | 119 kts | 77° |
| 2026-05-06 19:13 | 51.14761 | -0.19425 | 199 ft | 86 kts | 77° |
| 2026-05-06 19:13 | 51.14854 | -0.18776 | 199 ft | 32 kts | 74° |
| 2026-05-06 19:13 | 51.14926 | -0.18542 | 199 ft | 19 kts | 52° |
| 2026-05-06 19:14 | 51.14999 | -0.18398 | 199 ft | 10 kts | 51° |
| 2026-05-06 19:14 | 51.15049 | -0.18299 | 199 ft | 12 kts | 51° |
| 2026-05-06 19:14 | 51.15107 | -0.18195 | 199 ft | 12 kts | 34° |
| 2026-05-06 19:14 | 51.15144 | -0.18191 | 199 ft | 5 kts | 349° |